createdAt,value
2023-06-07T00:04:01.503Z,6.80
2023-06-07T00:09:05.276Z,7.60
2023-06-07T00:14:08.964Z,8.20
2023-06-07T00:19:12.539Z,8.80
2023-06-07T00:24:20.254Z,8.00
2023-06-07T00:29:23.971Z,7.40
2023-06-07T00:34:28.214Z,8.20
2023-06-07T00:39:31.898Z,8.70
2023-06-07T00:44:35.021Z,6.70
2023-06-07T00:49:40.109Z,7.40
2023-06-07T00:54:43.040Z,8.60
2023-06-07T00:59:49.922Z,8.60
2023-06-07T01:04:53.401Z,8.40
2023-06-07T01:09:55.830Z,8.40
2023-06-07T01:14:59.728Z,9.20
2023-06-07T01:20:06.570Z,8.70
2023-06-07T01:25:13.498Z,8.00
2023-06-07T01:30:17.330Z,8.80
2023-06-07T01:35:21.054Z,7.90
2023-06-07T01:40:25.968Z,8.20
2023-06-07T01:45:29.844Z,7.50
2023-06-07T01:50:33.099Z,6.90
2023-06-07T01:55:38.212Z,9.50
2023-06-07T02:01:20.143Z,9.70
2023-06-07T02:06:31.935Z,8.70
2023-06-07T02:11:35.706Z,9.20
2023-06-07T02:16:39.237Z,8.80
2023-06-07T02:21:41.901Z,8.20
2023-06-07T02:26:45.009Z,9.40
2023-06-07T02:31:51.484Z,8.50
2023-06-07T02:36:55.375Z,9.90
2023-06-07T02:41:59.300Z,10.10
2023-06-07T02:47:01.672Z,9.00
2023-06-07T02:52:05.995Z,10.40
2023-06-07T02:57:09.553Z,8.50
2023-06-07T03:02:13.335Z,9.20
2023-06-07T03:07:16.828Z,10.70
2023-06-07T03:12:19.287Z,10.50
2023-06-07T03:17:21.099Z,10.80
2023-06-07T03:22:23.211Z,9.30
2023-06-07T03:27:25.982Z,12.00
2023-06-07T03:32:28.257Z,11.60
2023-06-07T03:37:31.440Z,11.30
2023-06-07T03:42:34.911Z,9.20
2023-06-07T03:47:38.168Z,11.50
2023-06-07T03:52:40.954Z,11.20
2023-06-07T03:57:44.127Z,12.90
2023-06-07T04:02:46.752Z,12.70
2023-06-07T04:07:50.084Z,12.40
2023-06-07T04:12:52.994Z,12.20
2023-06-07T04:17:55.917Z,12.60
2023-06-07T04:22:58.503Z,10.70
2023-06-07T04:28:01.674Z,10.20
2023-06-07T04:33:11.397Z,10.00
2023-06-07T04:38:16.521Z,12.20
2023-06-07T04:43:21.146Z,10.80
2023-06-07T04:48:27.424Z,10.30
2023-06-07T04:53:42.931Z,13.10
2023-06-07T04:58:47.032Z,10.80
2023-06-07T05:03:51.834Z,11.10
2023-06-07T05:08:56.927Z,9.40
2023-06-07T05:14:00.632Z,8.50
2023-06-07T05:19:05.136Z,8.00
2023-06-07T05:24:07.940Z,9.10
2023-06-07T05:29:10.033Z,6.60
2023-06-07T05:34:12.158Z,4.50
2023-06-07T05:39:14.265Z,3.50
2023-06-07T05:44:20.144Z,4.00
2023-06-07T05:49:23.789Z,3.10
2023-06-07T05:59:32.374Z,3.90
2023-06-07T06:04:36.250Z,4.00
2023-06-07T06:09:38.488Z,3.30
2023-06-07T06:14:40.942Z,3.50
2023-06-07T06:19:43.644Z,3.60
2023-06-07T06:24:46.819Z,4.10
2023-06-07T06:34:50.626Z,2.80
2023-06-07T06:39:52.840Z,3.20
2023-06-07T06:44:55.485Z,2.60
2023-06-07T06:50:00.217Z,2.90
2023-06-07T06:55:02.181Z,3.40
2023-06-07T07:00:07.692Z,2.80
2023-06-07T07:05:12.089Z,2.90
2023-06-07T07:10:14.055Z,2.80
2023-06-07T07:20:19.027Z,3.00
2023-06-07T07:25:22.827Z,2.40
2023-06-07T07:30:26.146Z,2.70
2023-06-07T07:35:29.002Z,2.90
2023-06-07T07:40:32.264Z,2.60
2023-06-07T07:45:34.614Z,3.20
2023-06-07T07:50:39.645Z,2.10
2023-06-07T07:55:43.219Z,2.30
2023-06-07T08:05:50.851Z,8.20
2023-06-07T08:10:53.261Z,2.50
2023-06-07T08:15:56.815Z,3.20
2023-06-07T08:21:00.442Z,3.30
2023-06-07T08:26:04.262Z,2.60
2023-06-07T08:31:07.881Z,2.70
2023-06-07T08:36:11.291Z,3.10
2023-06-07T08:41:17.374Z,2.80
2023-06-07T08:46:21.870Z,3.00
2023-06-07T08:51:27.363Z,3.10
2023-06-07T08:56:33.422Z,2.80
2023-06-07T09:01:38.222Z,3.20
2023-06-07T09:06:41.135Z,3.40
2023-06-07T09:11:44.891Z,3.50
2023-06-07T09:16:55.975Z,2.90
2023-06-07T09:21:59.236Z,3.10
2023-06-07T09:27:04.526Z,2.60
2023-06-07T09:32:23.054Z,3.20
2023-06-07T09:37:46.460Z,3.30
2023-06-07T09:43:01.265Z,3.40
2023-06-07T09:48:08.644Z,3.20
2023-06-07T09:53:11.588Z,3.40
2023-06-07T09:58:25.939Z,3.10
2023-06-07T10:03:29.653Z,3.60
2023-06-07T10:08:32.379Z,3.60
2023-06-07T10:13:36.520Z,3.20
2023-06-07T10:18:43.003Z,3.10
2023-06-07T10:24:01.843Z,3.50
2023-06-07T10:29:10.430Z,3.40
2023-06-07T10:34:16.438Z,3.50
2023-06-07T10:39:23.581Z,3.20
2023-06-07T10:44:27.139Z,2.90
2023-06-07T10:49:37.068Z,3.30
2023-06-07T10:54:39.353Z,3.00
2023-06-07T10:59:44.327Z,3.20
2023-06-07T11:04:52.732Z,3.40
2023-06-07T11:10:14.698Z,3.20
2023-06-07T11:15:29.722Z,3.60
2023-06-07T11:20:39.685Z,3.20
2023-06-07T11:25:42.427Z,3.90
2023-06-07T11:30:44.925Z,3.50
2023-06-07T11:35:48.523Z,3.10
2023-06-07T11:40:51.030Z,3.30
2023-06-07T11:45:57.887Z,3.20
2023-06-07T11:51:01.315Z,4.00
2023-06-07T11:56:04.710Z,3.80
2023-06-07T12:01:07.754Z,3.30
2023-06-07T12:06:10.986Z,3.30
2023-06-07T12:11:15.338Z,2.80
2023-06-07T12:16:28.343Z,3.90
2023-06-07T12:21:31.806Z,3.40
2023-06-07T12:26:37.468Z,3.50
2023-06-07T12:31:44.059Z,2.80
2023-06-07T12:36:49.722Z,3.60
2023-06-07T12:41:53.616Z,3.30
2023-06-07T12:46:56.597Z,3.60
2023-06-07T12:51:58.780Z,3.50
2023-06-07T12:57:02.446Z,3.30
2023-06-07T13:02:08.140Z,3.60
2023-06-07T13:07:12.578Z,2.90
2023-06-07T13:12:17.281Z,2.80
2023-06-07T13:17:25.117Z,2.90
2023-06-07T13:22:34.035Z,3.30
2023-06-07T13:27:39.241Z,2.70
2023-06-07T13:32:43.971Z,3.10
2023-06-07T13:37:48.808Z,2.70
2023-06-07T13:42:53.754Z,3.20
2023-06-07T13:47:57.922Z,3.40
2023-06-07T13:53:02.872Z,3.50
2023-06-07T13:58:07.438Z,3.30
2023-06-07T14:03:11.010Z,3.40
2023-06-07T14:08:14.345Z,3.20
2023-06-07T14:13:19.626Z,3.50
2023-06-07T14:23:30.044Z,3.40
2023-06-07T14:28:34.401Z,3.40
2023-06-07T14:33:39.882Z,5.00
2023-06-07T14:38:45.421Z,3.40
2023-06-07T14:43:49.782Z,2.80
2023-06-07T14:48:55.038Z,3.60
2023-06-07T14:54:01.707Z,3.60
2023-06-07T14:59:14.572Z,2.70
2023-06-07T15:04:19.035Z,2.90
2023-06-07T15:09:26.277Z,3.60
2023-06-07T15:19:34.269Z,14.70
2023-06-07T15:24:38.827Z,5.80
2023-06-07T15:29:41.360Z,3.80
2023-06-07T15:34:46.452Z,6.00
2023-06-07T15:39:49.948Z,4.20
2023-06-07T15:44:53.296Z,3.50
2023-06-07T15:49:56.565Z,3.80
2023-06-07T15:54:58.679Z,3.70
2023-06-07T16:00:00.653Z,4.60
2023-06-07T16:05:04.328Z,3.40
2023-06-07T16:10:09.010Z,3.70
2023-06-07T16:15:12.511Z,4.70
2023-06-07T16:20:15.885Z,4.30
2023-06-07T16:25:20.896Z,3.80
2023-06-07T16:30:26.575Z,3.90
2023-06-07T16:35:29.607Z,3.40
2023-06-07T16:40:32.381Z,4.60
2023-06-07T16:45:37.518Z,5.20
2023-06-07T16:50:42.997Z,4.00
2023-06-07T16:55:46.725Z,4.40
2023-06-07T17:00:51.691Z,4.00
2023-06-07T17:05:56.880Z,4.00
2023-06-07T17:11:04.879Z,4.20
2023-06-07T17:16:10.609Z,4.00
2023-06-07T17:21:15.082Z,4.70
2023-06-07T17:26:19.110Z,3.90
2023-06-07T17:31:24.455Z,3.20
2023-06-07T17:36:36.796Z,3.70
2023-06-07T17:41:46.214Z,4.70
2023-06-07T17:46:48.831Z,4.00
2023-06-07T17:51:53.443Z,4.00
2023-06-07T17:56:55.728Z,3.90
2023-06-07T18:01:58.144Z,4.40
2023-06-07T18:07:04.272Z,4.00
2023-06-07T18:12:14.122Z,3.70
2023-06-07T18:17:18.845Z,4.60
2023-06-07T18:22:22.789Z,4.20
2023-06-07T18:27:25.936Z,3.90
2023-06-07T18:32:31.291Z,4.10
2023-06-07T18:42:40.600Z,4.80
2023-06-07T18:47:45.351Z,4.00
2023-06-07T18:52:53.159Z,4.20
2023-06-07T18:57:59.849Z,6.10
2023-06-07T19:03:07.458Z,4.10
2023-06-07T19:08:14.116Z,4.90
2023-06-07T19:13:21.173Z,5.20
2023-06-07T19:18:24.746Z,4.40
2023-06-07T19:23:28.289Z,4.30
2023-06-07T19:28:35.009Z,4.90
2023-06-07T19:33:39.616Z,5.00
2023-06-07T19:38:45.421Z,5.90
2023-06-07T19:43:48.800Z,5.80
2023-06-07T19:48:51.407Z,4.80
2023-06-07T19:53:57.949Z,4.60
2023-06-07T19:59:01.905Z,5.80
2023-06-07T20:04:05.578Z,8.10
2023-06-07T20:09:10.658Z,9.20
2023-06-07T20:14:14.659Z,7.60
2023-06-07T20:19:18.284Z,7.20
2023-06-07T20:24:21.632Z,6.90
2023-06-07T20:29:25.464Z,6.90
2023-06-07T20:34:30.090Z,6.80
2023-06-07T20:39:33.249Z,6.20
2023-06-07T20:44:51.492Z,5.70
2023-06-07T20:49:59.161Z,5.70
2023-06-07T20:55:03.527Z,6.00
2023-06-07T21:00:10.230Z,6.20
2023-06-07T21:05:16.189Z,6.00
2023-06-07T21:10:19.723Z,6.60
2023-06-07T21:15:23.951Z,7.80
2023-06-07T21:20:28.610Z,6.20
2023-06-07T21:25:33.346Z,5.80
2023-06-07T21:30:36.609Z,9.20
2023-06-07T21:35:40.561Z,8.80
2023-06-07T21:40:44.335Z,10.00
2023-06-07T21:45:51.286Z,10.30
2023-06-07T21:55:59.583Z,12.40
2023-06-07T22:01:03.094Z,11.30
2023-06-07T22:06:07.264Z,10.60
2023-06-07T22:11:10.186Z,9.40
2023-06-07T22:16:13.999Z,8.60
2023-06-07T22:21:19.033Z,9.10
2023-06-07T22:26:21.254Z,9.20
2023-06-07T22:31:23.886Z,9.00
2023-06-07T22:36:32.930Z,9.20
2023-06-07T22:41:36.318Z,8.30
2023-06-07T22:46:38.262Z,8.60
2023-06-07T22:51:44.446Z,7.60
2023-06-07T23:01:55.461Z,7.20
2023-06-07T23:07:00.694Z,8.80
2023-06-07T23:12:06.599Z,7.10
2023-06-07T23:17:11.327Z,6.70
2023-06-07T23:22:18.550Z,7.20
2023-06-07T23:27:21.311Z,7.10
2023-06-07T23:32:24.350Z,7.60
2023-06-07T23:37:29.386Z,7.30
2023-06-07T23:42:33.707Z,8.20
2023-06-07T23:47:38.675Z,7.20
2023-06-07T23:52:42.235Z,7.50
2023-06-07T23:57:46.119Z,7.30
